createdAt,value
2022-07-29T00:00:02.637Z,11.30
2022-07-29T00:06:35.113Z,6.50
2022-07-29T00:12:43.202Z,7.70
2022-07-29T00:18:15.326Z,7.20
2022-07-29T00:24:29.003Z,7.30
2022-07-29T00:29:43.331Z,7.30
2022-07-29T00:36:05.559Z,8.80
2022-07-29T00:42:02.599Z,6.30
2022-07-29T00:47:27.383Z,8.70
2022-07-29T00:53:38.594Z,8.00
2022-07-29T00:59:06.575Z,8.90
2022-07-29T01:05:14.860Z,7.80
2022-07-29T01:10:40.547Z,7.70
2022-07-29T01:16:10.661Z,9.30
2022-07-29T01:22:29.221Z,7.20
2022-07-29T01:28:36.613Z,6.60
2022-07-29T01:34:44.513Z,7.10
2022-07-29T01:40:14.307Z,7.10
2022-07-29T01:46:01.873Z,7.50
2022-07-29T01:51:28.297Z,8.90
2022-07-29T01:57:26.243Z,6.20
2022-07-29T02:03:19.293Z,6.70
2022-07-29T02:09:45.881Z,6.40
2022-07-29T02:15:52.023Z,9.20
2022-07-29T02:21:30.247Z,6.50
2022-07-29T02:27:35.437Z,7.50
2022-07-29T02:33:04.000Z,6.30
2022-07-29T02:38:56.689Z,6.50
2022-07-29T02:44:25.921Z,6.50
2022-07-29T02:50:36.971Z,6.90
2022-07-29T02:56:54.026Z,5.80
2022-07-29T03:10:26.226Z,5.50
2022-07-29T03:15:55.435Z,5.60
2022-07-29T03:27:38.485Z,4.50
2022-07-29T03:33:41.487Z,4.40
2022-07-29T03:39:19.334Z,4.10
2022-07-29T03:44:28.138Z,7.00
2022-07-29T03:49:40.418Z,5.20
2022-07-29T03:54:59.442Z,6.50
2022-07-29T04:00:26.673Z,6.20
2022-07-29T04:06:43.893Z,6.40
2022-07-29T04:12:40.533Z,7.20
2022-07-29T04:18:26.584Z,8.30
2022-07-29T04:23:34.622Z,7.70
2022-07-29T04:28:58.001Z,9.90
2022-07-29T04:34:11.596Z,9.00
2022-07-29T04:39:27.261Z,7.90
2022-07-29T04:44:37.232Z,5.80
2022-07-29T04:49:43.568Z,5.60
2022-07-29T04:55:50.515Z,5.40
2022-07-29T05:01:09.042Z,6.20
2022-07-29T05:06:25.660Z,8.40
2022-07-29T05:11:31.992Z,6.60
2022-07-29T05:16:48.897Z,6.50
2022-07-29T05:21:55.499Z,10.50
2022-07-29T05:26:59.259Z,6.80
2022-07-29T05:32:05.263Z,8.10
2022-07-29T05:37:21.403Z,6.80
2022-07-29T05:42:30.336Z,5.80
2022-07-29T05:47:36.318Z,5.00
2022-07-29T05:52:42.477Z,6.80
2022-07-29T05:57:56.123Z,4.20
2022-07-29T06:03:19.809Z,5.50
2022-07-29T06:08:23.361Z,3.90
2022-07-29T06:13:26.572Z,4.00
2022-07-29T06:18:35.399Z,4.00
2022-07-29T06:23:40.582Z,5.60
2022-07-29T06:28:43.940Z,5.30
2022-07-29T06:33:49.677Z,4.20
2022-07-29T06:38:57.983Z,4.70
2022-07-29T06:44:01.408Z,3.50
2022-07-29T06:49:05.628Z,4.20
2022-07-29T06:54:08.958Z,4.20
2022-07-29T06:59:13.699Z,4.60
2022-07-29T07:04:30.093Z,4.50
2022-07-29T07:09:40.641Z,3.60
2022-07-29T07:14:47.701Z,3.80
2022-07-29T07:20:05.459Z,4.30
2022-07-29T07:25:11.902Z,2.90
2022-07-29T07:30:15.783Z,2.60
2022-07-29T07:35:19.454Z,2.70
2022-07-29T07:40:25.280Z,3.30
2022-07-29T07:45:33.678Z,3.80
2022-07-29T07:50:38.095Z,4.50
2022-07-29T08:01:07.237Z,3.60
2022-07-29T08:06:12.946Z,3.10
2022-07-29T08:11:16.670Z,3.40
2022-07-29T08:16:20.098Z,3.80
2022-07-29T08:21:27.011Z,6.70
2022-07-29T08:26:33.373Z,3.40
2022-07-29T08:31:38.411Z,3.40
2022-07-29T08:36:41.888Z,3.60
2022-07-29T08:41:57.362Z,3.00
2022-07-29T08:47:06.458Z,4.70
2022-07-29T08:52:12.825Z,3.90
2022-07-29T08:57:51.112Z,3.20
2022-07-29T09:03:00.401Z,3.70
2022-07-29T09:08:06.441Z,4.30
2022-07-29T09:13:12.454Z,4.90
2022-07-29T09:18:48.276Z,5.50
2022-07-29T09:24:46.708Z,3.40
2022-07-29T09:30:13.646Z,3.90
2022-07-29T09:35:57.183Z,5.20
2022-07-29T09:41:11.327Z,3.60
2022-07-29T09:46:20.359Z,3.50
2022-07-29T09:51:38.316Z,3.10
2022-07-29T09:56:45.154Z,8.50
2022-07-29T10:01:51.784Z,3.50
2022-07-29T10:07:05.360Z,3.90
2022-07-29T10:12:16.765Z,4.00
2022-07-29T10:17:22.958Z,3.00
2022-07-29T10:22:51.426Z,3.10
2022-07-29T10:27:55.019Z,4.20
2022-07-29T10:33:32.320Z,4.10
2022-07-29T10:39:03.273Z,3.90
2022-07-29T10:44:17.435Z,2.50
2022-07-29T10:49:33.277Z,5.90
2022-07-29T10:54:37.237Z,3.30
2022-07-29T10:59:53.237Z,3.30
2022-07-29T11:04:56.702Z,5.10
2022-07-29T11:16:06.569Z,3.00
2022-07-29T11:21:53.931Z,4.30
2022-07-29T11:27:28.561Z,3.50
2022-07-29T11:32:59.794Z,4.90
2022-07-29T11:38:31.631Z,3.10
2022-07-29T11:43:56.123Z,3.70
2022-07-29T11:49:01.280Z,4.60
2022-07-29T11:54:06.522Z,2.60
2022-07-29T11:59:32.982Z,3.10
2022-07-29T12:05:02.066Z,3.30
2022-07-29T12:10:31.922Z,4.10
2022-07-29T12:16:00.109Z,3.90
2022-07-29T12:21:09.623Z,3.50
2022-07-29T12:26:25.342Z,3.60
2022-07-29T12:31:41.960Z,4.90
2022-07-29T12:36:48.401Z,2.80
2022-07-29T12:42:04.802Z,4.00
2022-07-29T12:47:10.812Z,3.60
2022-07-29T12:52:33.927Z,3.70
2022-07-29T12:57:48.855Z,3.40
2022-07-29T13:03:02.466Z,5.00
2022-07-29T13:08:21.952Z,3.70
2022-07-29T13:13:31.081Z,2.80
2022-07-29T13:18:37.557Z,2.90
2022-07-29T13:23:44.131Z,4.50
2022-07-29T13:28:47.443Z,2.40
2022-07-29T13:33:51.007Z,4.40
2022-07-29T13:39:02.126Z,3.40
2022-07-29T13:44:05.459Z,4.60
2022-07-29T13:49:08.993Z,2.90
2022-07-29T13:54:12.369Z,3.20
2022-07-29T13:59:20.045Z,3.80
2022-07-29T14:04:24.493Z,3.50
2022-07-29T14:09:28.297Z,6.20
2022-07-29T14:14:33.545Z,8.90
2022-07-29T14:19:39.098Z,8.30
2022-07-29T14:24:42.647Z,6.50
2022-07-29T14:29:47.079Z,4.40
2022-07-29T14:34:53.494Z,3.60
2022-07-29T14:40:00.840Z,3.60
2022-07-29T14:45:09.228Z,4.50
2022-07-29T14:50:13.307Z,4.00
2022-07-29T14:55:20.127Z,4.20
2022-07-29T15:00:23.798Z,3.10
2022-07-29T15:05:27.939Z,4.70
2022-07-29T15:10:40.156Z,3.60
2022-07-29T15:15:44.164Z,3.20
2022-07-29T15:20:47.783Z,4.00
2022-07-29T15:25:51.105Z,4.80
2022-07-29T15:30:57.427Z,4.70
2022-07-29T15:36:00.903Z,3.50
2022-07-29T15:41:04.240Z,4.30
2022-07-29T15:46:26.304Z,5.50
2022-07-29T15:51:29.686Z,4.20
2022-07-29T15:56:36.635Z,2.60
2022-07-29T16:01:42.500Z,3.20
2022-07-29T16:06:48.010Z,3.70
2022-07-29T16:11:53.785Z,4.50
2022-07-29T16:16:57.371Z,3.40
2022-07-29T16:22:00.951Z,3.90
2022-07-29T16:27:04.571Z,3.80
2022-07-29T16:32:10.328Z,3.30
2022-07-29T16:37:16.369Z,3.40
2022-07-29T16:42:36.995Z,5.40
2022-07-29T16:47:46.427Z,4.40
2022-07-29T16:52:49.936Z,3.50
2022-07-29T16:57:53.179Z,5.40
2022-07-29T17:02:56.666Z,3.80
2022-07-29T17:07:59.824Z,4.60
2022-07-29T17:13:02.943Z,4.00
2022-07-29T17:18:12.720Z,4.90
2022-07-29T17:23:16.589Z,3.00
2022-07-29T17:28:20.200Z,2.50
2022-07-29T17:33:23.378Z,4.00
2022-07-29T17:38:26.771Z,5.00
2022-07-29T17:43:30.017Z,5.20
2022-07-29T17:48:33.284Z,4.50
2022-07-29T17:53:38.321Z,6.20
2022-07-29T17:58:42.115Z,8.70
2022-07-29T18:03:48.781Z,5.40
2022-07-29T18:08:52.738Z,5.60
2022-07-29T18:13:59.051Z,8.10
2022-07-29T18:19:08.940Z,5.10
2022-07-29T18:24:17.642Z,6.00
2022-07-29T18:29:24.244Z,6.00
2022-07-29T18:34:30.571Z,9.30
2022-07-29T18:39:36.885Z,10.50
2022-07-29T18:44:43.666Z,10.70
2022-07-29T18:49:49.820Z,10.40
2022-07-29T18:54:53.361Z,5.80
2022-07-29T18:59:56.595Z,4.10
2022-07-29T19:05:00.213Z,7.00
2022-07-29T19:10:04.056Z,8.40
2022-07-29T19:15:08.355Z,6.60
2022-07-29T19:20:12.230Z,5.70
2022-07-29T19:25:15.590Z,10.40
2022-07-29T19:30:18.920Z,6.40
2022-07-29T19:35:24.834Z,6.60
2022-07-29T19:40:30.266Z,5.00
2022-07-29T19:45:34.403Z,6.00
2022-07-29T19:50:37.721Z,5.50
2022-07-29T19:55:43.227Z,4.30
2022-07-29T20:00:50.414Z,4.00
2022-07-29T20:05:54.511Z,6.20
2022-07-29T20:10:57.926Z,5.90
2022-07-29T20:16:05.568Z,6.30
2022-07-29T20:21:09.148Z,6.90
2022-07-29T20:26:12.903Z,6.70
2022-07-29T20:31:17.081Z,7.00
2022-07-29T20:36:20.560Z,9.70
2022-07-29T20:41:23.904Z,6.00
2022-07-29T20:46:27.515Z,5.70
2022-07-29T20:51:30.697Z,10.50
2022-07-29T20:56:36.066Z,5.80
2022-07-29T21:01:39.590Z,6.70
2022-07-29T21:06:42.835Z,7.60
2022-07-29T21:11:46.691Z,5.20
2022-07-29T21:16:50.923Z,7.00
2022-07-29T21:21:54.229Z,5.70
2022-07-29T21:27:21.778Z,6.00
2022-07-29T21:32:30.055Z,6.90
2022-07-29T21:37:33.945Z,5.40
2022-07-29T21:42:39.914Z,6.80
2022-07-29T21:47:43.199Z,5.80
2022-07-29T21:52:46.499Z,4.70
2022-07-29T21:57:50.957Z,7.80
2022-07-29T22:02:54.533Z,6.50
2022-07-29T22:07:58.734Z,7.90
2022-07-29T22:13:03.574Z,7.50
